createdAt,value
2019-03-30T00:01:07.174Z,104.9
2019-03-30T00:06:07.050Z,104.78
2019-03-30T00:11:06.922Z,104.51
2019-03-30T00:15:08.549Z,104.44
2019-03-30T00:20:07.740Z,104.68
2019-03-30T00:25:07.581Z,104.74
2019-03-30T00:30:08.777Z,104.64
2019-03-30T00:35:07.923Z,104.61
2019-03-30T00:40:07.194Z,104.63
2019-03-30T00:45:09.400Z,104.53
2019-03-30T00:49:07.219Z,104.71
2019-03-30T00:54:08.062Z,104.53
2019-03-30T00:59:07.890Z,104.55
2019-03-30T01:04:07.353Z,104.61
2019-03-30T01:09:07.677Z,104.64
2019-03-30T01:14:07.446Z,104.65
2019-03-30T01:19:07.599Z,104.74
2019-03-30T01:24:07.426Z,104.77
2019-03-30T01:28:08.049Z,104.92
2019-03-30T01:33:07.601Z,104.97
2019-03-30T01:38:07.381Z,105.05
2019-03-30T01:43:07.605Z,105.06
2019-03-30T01:48:07.655Z,105.05
2019-03-30T01:53:07.455Z,105.33
2019-03-30T01:58:07.233Z,105.49
2019-03-30T02:03:11.218Z,105.34
2019-03-30T02:07:10.794Z,105.36
2019-03-30T02:12:09.174Z,105.37
2019-03-30T02:17:07.589Z,105.32
2019-03-30T02:22:07.263Z,105.32
2019-03-30T02:27:07.614Z,105.39
2019-03-30T02:32:07.976Z,105.45
2019-03-30T02:37:07.590Z,105.79
2019-03-30T02:42:08.193Z,106.32
2019-03-30T02:46:07.381Z,106.47
2019-03-30T02:51:07.635Z,106.64
2019-03-30T02:56:07.263Z,106.64
2019-03-30T03:01:08.079Z,106.67
2019-03-30T03:06:07.987Z,106.49
2019-03-30T03:11:07.349Z,106.27
2019-03-30T03:16:07.920Z,106.44
2019-03-30T03:21:09.726Z,106.55
2019-03-30T03:25:07.204Z,106.85
2019-03-30T03:30:08.754Z,106.8
2019-03-30T03:35:07.714Z,106.91
2019-03-30T03:40:07.193Z,107.03
2019-03-30T03:45:08.241Z,107.11
2019-03-30T03:50:07.911Z,107.22
2019-03-30T03:55:06.896Z,107.22
2019-03-30T04:00:09.683Z,107.21
2019-03-30T04:04:06.992Z,107.16
2019-03-30T04:09:07.251Z,107.22
2019-03-30T04:14:07.092Z,107.16
2019-03-30T04:19:07.615Z,107.07
2019-03-30T04:24:07.634Z,107.16
2019-03-30T04:29:07.641Z,107.27
2019-03-30T04:34:07.464Z,107.29
2019-03-30T04:38:07.506Z,107.19
2019-03-30T04:43:07.782Z,106.95
2019-03-30T04:48:07.408Z,107.03
2019-03-30T04:53:07.283Z,106.97
2019-03-30T04:58:10.356Z,106.83
2019-03-30T05:03:07.529Z,106.93
2019-03-30T05:08:07.408Z,107
2019-03-30T05:12:07.664Z,107.35
2019-03-30T05:17:08.190Z,107.45
2019-03-30T05:22:17.333Z,107.56
2019-03-30T05:27:08.021Z,107.59
2019-03-30T05:32:07.342Z,107.65
2019-03-30T05:37:08.172Z,107.65
2019-03-30T05:42:07.571Z,107.6
2019-03-30T05:47:08.101Z,107.47
2019-03-30T05:51:07.375Z,107.06
2019-03-30T05:56:07.118Z,105.98
2019-03-30T06:01:08.187Z,105.09
2019-03-30T06:06:08.012Z,104.01
2019-03-30T06:11:07.645Z,103.36
2019-03-30T06:16:08.098Z,101.24
2019-03-30T06:21:07.970Z,100.72
2019-03-30T06:25:07.642Z,101.81
2019-03-30T06:30:08.756Z,101.41
2019-03-30T06:35:07.209Z,101.18
2019-03-30T06:40:07.622Z,101.33
2019-03-30T06:45:09.377Z,100.69
2019-03-30T06:50:07.571Z,99.61
2019-03-30T06:55:07.420Z,98.1
2019-03-30T06:59:07.407Z,96.76
2019-03-30T07:04:11.034Z,93.67
2019-03-30T07:09:07.518Z,90.81
2019-03-30T07:14:07.763Z,89.19
2019-03-30T07:19:08.131Z,87.67
2019-03-30T07:24:08.047Z,84.76
2019-03-30T07:29:07.781Z,82.02
2019-03-30T07:34:07.361Z,80.82
2019-03-30T07:39:08.515Z,77.35
2019-03-30T07:44:07.433Z,77.45
2019-03-30T07:48:07.556Z,78.2
2019-03-30T07:53:07.491Z,75.72
2019-03-30T07:58:07.574Z,74.99
2019-03-30T08:03:09.273Z,75.93
2019-03-30T08:08:08.429Z,74.69
2019-03-30T08:13:07.916Z,74.14
2019-03-30T08:18:07.724Z,77.18
2019-03-30T08:22:07.152Z,74.86
2019-03-30T08:27:07.002Z,72.93
2019-03-30T08:32:07.793Z,74.71
2019-03-30T08:37:08.926Z,75.76
2019-03-30T08:42:07.225Z,73.33
2019-03-30T08:47:07.776Z,76.45
2019-03-30T08:52:07.969Z,74.74
2019-03-30T08:57:07.884Z,70.66
2019-03-30T09:01:07.655Z,72.85
2019-03-30T09:06:07.389Z,71.83
2019-03-30T09:11:07.320Z,69.88
2019-03-30T09:16:07.839Z,67.55
2019-03-30T09:21:07.836Z,69.17
2019-03-30T09:26:07.677Z,68.85
2019-03-30T09:31:07.823Z,69.32
2019-03-30T09:36:07.636Z,67.06
2019-03-30T09:40:07.267Z,66.04
2019-03-30T09:45:08.341Z,66.95
2019-03-30T09:50:07.910Z,66.37
2019-03-30T09:55:07.833Z,69.15
2019-03-30T10:00:10.306Z,66.51
2019-03-30T10:05:07.756Z,62.2
2019-03-30T10:10:08.232Z,61.97
2019-03-30T10:15:09.688Z,60.19
2019-03-30T10:19:07.633Z,63.96
2019-03-30T10:24:07.621Z,59.29
2019-03-30T10:29:07.454Z,58.36
2019-03-30T10:34:07.373Z,59.17
2019-03-30T10:39:07.775Z,56.31
2019-03-30T10:44:07.637Z,57.72
2019-03-30T10:49:07.579Z,56.16
2019-03-30T10:53:07.870Z,54.77
2019-03-30T10:58:07.972Z,52.99
2019-03-30T11:03:07.674Z,53.89
2019-03-30T11:08:07.466Z,53.86
2019-03-30T11:13:07.936Z,52.11
2019-03-30T11:18:07.507Z,54.02
2019-03-30T11:23:07.340Z,52.45
2019-03-30T11:28:07.190Z,49.77
2019-03-30T11:33:07.733Z,51.68
2019-03-30T11:37:07.658Z,57.01
2019-03-30T11:42:07.857Z,53.84
2019-03-30T11:47:07.453Z,52.09
2019-03-30T11:52:07.335Z,55.08
2019-03-30T11:57:08.127Z,52.37
2019-03-30T12:02:06.905Z,51.51
2019-03-30T12:07:08.011Z,49.39
2019-03-30T12:11:07.756Z,50.97
2019-03-30T12:16:07.352Z,51.04
2019-03-30T12:21:07.250Z,52.19
2019-03-30T12:26:07.225Z,52.68
2019-03-30T12:31:07.422Z,54.36
2019-03-30T12:36:07.182Z,51.91
2019-03-30T12:41:07.577Z,50.17
2019-03-30T12:45:09.606Z,50.05
2019-03-30T12:50:07.250Z,49.77
2019-03-30T12:55:08.170Z,48.87
2019-03-30T13:00:09.494Z,51.03
2019-03-30T13:10:06.960Z,52.24
2019-03-30T13:15:09.603Z,50.33
2019-03-30T13:19:07.149Z,52.54
2019-03-30T13:25:07.548Z,50.67
2019-03-30T13:29:07.013Z,49.61
2019-03-30T13:34:07.608Z,52.72
2019-03-30T13:39:07.758Z,52.94
2019-03-30T13:44:07.530Z,51.38
2019-03-30T13:49:07.039Z,49.89
2019-03-30T13:54:06.901Z,53.23
2019-03-30T13:59:08.170Z,50.93
2019-03-30T14:03:08.277Z,51.15
2019-03-30T14:08:08.094Z,51.35
2019-03-30T14:13:07.484Z,49.29
2019-03-30T14:18:07.856Z,48.87
2019-03-30T14:23:07.385Z,47.24
2019-03-30T14:28:07.275Z,49.16
2019-03-30T14:33:07.023Z,50.29
2019-03-30T14:37:08.060Z,47.67
2019-03-30T14:42:07.413Z,49.38
2019-03-30T14:47:07.546Z,49.71
2019-03-30T14:52:07.800Z,50.52
2019-03-30T14:57:07.346Z,48.84
2019-03-30T15:02:07.449Z,45.58
2019-03-30T15:07:07.730Z,46.72
2019-03-30T15:11:07.890Z,47.36
2019-03-30T15:16:08.207Z,48.33
2019-03-30T15:21:09.592Z,47.77
2019-03-30T15:26:07.148Z,48.33
2019-03-30T15:31:08.049Z,48.78
2019-03-30T15:36:07.558Z,47.84
2019-03-30T15:41:06.993Z,49.28
2019-03-30T15:46:07.891Z,47.54
2019-03-30T15:50:07.827Z,48.68
2019-03-30T15:55:07.365Z,50.77
2019-03-30T16:00:09.052Z,48.79
2019-03-30T16:05:07.591Z,50.49
2019-03-30T16:10:07.627Z,49.89
2019-03-30T16:15:08.981Z,52.31
2019-03-30T16:20:07.277Z,55.99
2019-03-30T16:24:06.951Z,54.8
2019-03-30T16:29:08.099Z,52.8
2019-03-30T16:34:07.231Z,56.85
2019-03-30T16:39:07.850Z,57.07
2019-03-30T16:44:07.373Z,58.25
2019-03-30T16:49:07.920Z,58.21
2019-03-30T16:54:07.600Z,58.9
2019-03-30T16:58:07.661Z,59.33
2019-03-30T17:03:07.302Z,59.28
2019-03-30T17:08:07.622Z,58.3
2019-03-30T17:13:07.637Z,58.57
2019-03-30T17:18:07.739Z,59.17
2019-03-30T17:23:07.591Z,61.8
2019-03-30T17:28:07.875Z,62.29
2019-03-30T17:32:07.985Z,63.74
2019-03-30T17:37:08.117Z,64.12
2019-03-30T17:42:07.556Z,64.25
2019-03-30T17:47:07.456Z,63.83
2019-03-30T17:52:07.358Z,63.42
2019-03-30T17:57:07.458Z,62.32
2019-03-30T18:02:07.351Z,61.01
2019-03-30T18:06:06.997Z,63.41
2019-03-30T18:11:07.356Z,62.42
2019-03-30T18:16:08.052Z,61.6
2019-03-30T18:21:07.903Z,62.23
2019-03-30T18:26:07.405Z,61.52
2019-03-30T18:31:07.763Z,63.34
2019-03-30T18:36:07.252Z,66.72
2019-03-30T18:41:08.115Z,68.98
2019-03-30T18:45:09.294Z,71.69
2019-03-30T18:50:08.206Z,70.41
2019-03-30T18:55:07.690Z,69.75
2019-03-30T19:00:10.318Z,67.35
2019-03-30T19:05:07.369Z,68.09
2019-03-30T19:10:07.938Z,69.59
2019-03-30T19:15:08.677Z,69.79
2019-03-30T19:19:08.146Z,68.34
2019-03-30T19:24:07.658Z,67.35
2019-03-30T19:29:07.810Z,67.99
2019-03-30T19:34:07.278Z,68.12
2019-03-30T19:39:08.031Z,70.47
2019-03-30T19:44:07.997Z,72.79
2019-03-30T19:49:07.291Z,75.74
2019-03-30T19:54:08.105Z,77.88
2019-03-30T19:58:09.328Z,81.14
2019-03-30T20:03:08.113Z,81.87
2019-03-30T20:08:14.008Z,83.18
2019-03-30T20:13:10.248Z,84.5
2019-03-30T20:18:07.567Z,84.89
2019-03-30T20:23:07.570Z,85.59
2019-03-30T20:28:07.498Z,86.62
2019-03-30T20:32:08.072Z,86.56
2019-03-30T20:37:07.939Z,81.21
2019-03-30T20:42:07.761Z,81.6
2019-03-30T20:47:07.279Z,82.54
2019-03-30T20:52:08.099Z,83.32
2019-03-30T20:57:07.942Z,84.21
2019-03-30T21:02:08.139Z,85.15
2019-03-30T21:07:08.054Z,83.51
2019-03-30T21:11:08.171Z,83.02
2019-03-30T21:17:07.977Z,85.37
2019-03-30T21:21:10.228Z,87.11
2019-03-30T21:26:08.047Z,87.91
2019-03-30T21:31:07.977Z,85.85
2019-03-30T21:36:07.890Z,86.4
2019-03-30T21:41:08.228Z,89.01
2019-03-30T21:46:08.203Z,89.35
2019-03-30T21:50:07.715Z,91.14
2019-03-30T21:55:07.574Z,91.9
2019-03-30T22:00:12.403Z,91.77
2019-03-30T22:05:07.958Z,93.83
2019-03-30T22:10:07.330Z,95.83
2019-03-30T22:15:09.163Z,94.16
2019-03-30T22:20:07.915Z,94.61
2019-03-30T22:24:07.882Z,96.47
2019-03-30T22:29:07.877Z,97.86
2019-03-30T22:34:07.459Z,95.93
2019-03-30T22:39:07.672Z,96.14
2019-03-30T22:44:07.588Z,98.71
2019-03-30T22:49:07.852Z,97.99
2019-03-30T22:54:07.741Z,97.65
2019-03-30T22:59:07.682Z,99.24
2019-03-30T23:03:07.804Z,99.5
2019-03-30T23:08:07.595Z,99.92
2019-03-30T23:13:06.623Z,99.82
2019-03-30T23:18:07.243Z,100.08
2019-03-30T23:23:07.111Z,100.4
2019-03-30T23:28:07.097Z,100.91
2019-03-30T23:33:06.786Z,101.52
2019-03-30T23:37:07.209Z,101.77
2019-03-30T23:42:07.541Z,101.81
2019-03-30T23:47:08.068Z,101.77
2019-03-30T23:52:07.863Z,102.1
2019-03-30T23:57:07.722Z,102.01
